Time;durP1;ratioP1;P1;durP2;ratioP2;P2;SDS_P1;SDS_P2;PMS_P1;PMS_P2;Temp;Humidity;BMP_temperature;BMP_pressure;BME280_temperature;BME280_humidity;BME280_pressure;Samples;Min_cycle;Max_cycle;Signal;HPM_P1;HPM_P2
2022/04/10 00:00:08;;;;;;;22.80;11.35;;;;;;;11.37;54.13;98542.52;4312511;80;28556;-80
2022/04/10 00:06:17;;;;;;;19.87;10.55;;;;;;;11.37;53.56;98550.59;4306960;80;28573;-80
2022/04/10 00:12:18;;;;;;;20.05;10.85;;;;;;;11.47;52.91;98563.91;4304763;80;28524;-79
2022/04/10 00:18:19;;;;;;;21.35;10.28;;;;;;;11.66;52.27;98561.73;4318303;80;28499;-79
2022/04/10 00:24:25;;;;;;;22.67;11.00;;;;;;;11.43;52.97;98564.94;4289645;80;28518;-80
2022/04/10 00:30:24;;;;;;;20.95;9.85;;;;;;;11.53;52.68;98571.01;4323194;80;28532;-79
2022/04/10 00:36:25;;;;;;;19.90;10.65;;;;;;;11.62;51.73;98578.11;4253625;81;28582;-80
2022/04/10 00:42:35;;;;;;;19.05;9.88;;;;;;;11.37;52.60;98583.44;4291331;80;28541;-78
2022/04/10 00:48:37;;;;;;;18.73;8.95;;;;;;;11.20;52.86;98587.50;4294714;80;28527;-79
2022/04/10 00:54:39;;;;;;;18.20;9.45;;;;;;;11.23;52.26;98594.53;4323138;80;28449;-81
2022/04/10 01:00:41;;;;;;;19.80;9.10;;;;;;;11.16;52.59;98600.08;4305994;80;28494;-82
2022/04/10 01:06:50;;;;;;;19.37;9.68;;;;;;;10.90;52.63;98602.91;4306657;80;28483;-82
2022/04/10 01:12:53;;;;;;;18.07;9.13;;;;;;;10.88;52.63;98607.20;4288987;80;28574;-79
2022/04/10 01:18:56;;;;;;;17.17;8.60;;;;;;;10.59;53.40;98607.75;4299172;80;28549;-79
2022/04/10 01:25:01;;;;;;;18.82;9.83;;;;;;;10.44;53.93;98602.92;4257718;80;28519;-81
2022/04/10 01:31:04;;;;;;;17.82;9.43;;;;;;;10.32;54.06;98602.41;4283151;80;28510;-79
2022/04/10 01:37:07;;;;;;;20.00;9.88;;;;;;;10.51;53.62;98600.91;4306967;80;28574;-79
2022/04/10 01:43:09;;;;;;;16.90;9.28;;;;;;;10.51;53.75;98602.25;4267004;80;28522;-78
2022/04/10 01:49:11;;;;;;;18.25;9.93;;;;;;;10.38;53.61;98618.10;4302314;80;28553;-80
2022/04/10 01:55:13;;;;;;;15.90;8.98;;;;;;;10.51;53.03;98614.34;4277984;80;43905;-78
2022/04/10 02:01:17;;;;;;;16.93;8.55;;;;;;;10.65;52.36;98613.52;4274805;80;28567;-78
2022/04/10 02:07:18;;;;;;;15.85;7.90;;;;;;;10.56;52.90;98621.69;4295628;80;28518;-78
2022/04/10 02:13:20;;;;;;;15.53;8.98;;;;;;;10.60;52.45;98623.66;4315581;80;28492;-78
2022/04/10 02:19:22;;;;;;;17.82;9.03;;;;;;;10.36;53.54;98638.20;4285437;80;28509;-78
2022/04/10 02:25:24;;;;;;;16.60;8.55;;;;;;;10.26;54.22;98648.23;4324164;80;28450;-78
2022/04/10 02:31:25;;;;;;;15.30;8.53;;;;;;;10.37;53.73;98647.92;4294225;80;28494;-78
2022/04/10 02:37:26;;;;;;;14.07;7.72;;;;;;;10.09;54.31;98657.03;4297096;80;28512;-79
2022/04/10 02:43:28;;;;;;;15.30;8.35;;;;;;;10.27;54.10;98661.44;4316288;80;28547;-78
2022/04/10 02:49:31;;;;;;;15.58;7.55;;;;;;;10.01;54.08;98665.48;4314331;80;28532;-79
2022/04/10 02:55:33;;;;;;;17.00;8.00;;;;;;;10.02;54.26;98674.63;4277368;80;28556;-80
2022/04/10 03:01:35;;;;;;;18.32;9.08;;;;;;;9.85;54.38;98674.53;4314903;80;28578;-78
2022/04/10 03:07:37;;;;;;;17.55;8.33;;;;;;;9.46;56.06;98691.13;4338546;80;28504;-78
2022/04/10 03:13:39;;;;;;;13.25;7.72;;;;;;;9.83;54.24;98698.13;4236010;81;28525;-79
2022/04/10 03:19:41;;;;;;;15.03;7.83;;;;;;;9.84;53.54;98706.98;4277639;80;28514;-78
2022/04/10 03:25:42;;;;;;;13.28;7.97;;;;;;;9.76;53.34;98716.21;4337444;80;28532;-77
2022/04/10 03:31:46;;;;;;;15.23;8.33;;;;;;;9.42;54.04;98719.45;4295330;80;44411;-77
2022/04/10 03:37:48;;;;;;;14.15;7.85;;;;;;;9.39;54.63;98717.78;4286268;80;43946;-78
2022/04/10 03:43:49;;;;;;;14.28;8.05;;;;;;;9.40;54.63;98727.45;4297387;80;28527;-78
2022/04/10 03:49:51;;;;;;;14.65;8.10;;;;;;;9.70;54.89;98740.78;4283751;80;43919;-79
2022/04/10 03:55:53;;;;;;;18.23;8.53;;;;;;;9.88;55.11;98743.07;4310241;80;28507;-78
2022/04/10 04:01:55;;;;;;;15.68;9.30;;;;;;;9.93;55.48;98753.91;4288010;80;28611;-79
2022/04/10 04:07:56;;;;;;;15.60;8.30;;;;;;;9.80;57.01;98756.84;4304293;80;43925;-80
2022/04/10 04:13:58;;;;;;;13.90;8.40;;;;;;;10.07;55.75;98766.58;4303565;80;28477;-78
2022/04/10 04:20:03;;;;;;;13.58;8.18;;;;;;;10.10;55.41;98776.88;4309928;80;28524;-79
2022/04/10 04:26:05;;;;;;;13.95;8.40;;;;;;;10.39;53.87;98778.83;4285126;80;28503;-80
2022/04/10 04:32:08;;;;;;;12.78;7.62;;;;;;;10.27;54.62;98786.89;4303603;80;28516;-80
2022/04/10 04:38:09;;;;;;;13.60;8.18;;;;;;;10.35;53.78;98787.89;4276838;80;28594;-80
2022/04/10 04:44:11;;;;;;;15.60;7.53;;;;;;;10.53;53.47;98799.58;4313905;80;28546;-79
2022/04/10 04:50:13;;;;;;;12.37;7.17;;;;;;;10.53;53.73;98805.76;4294744;80;28561;-79
2022/04/10 04:56:16;;;;;;;11.83;7.20;;;;;;;10.60;54.08;98819.90;4278847;80;29002;-79
2022/04/10 05:02:17;;;;;;;13.32;7.75;;;;;;;11.08;52.76;98818.95;4301046;80;28517;-80
2022/04/10 05:08:20;;;;;;;11.55;6.95;;;;;;;11.38;52.09;98821.38;4233316;81;28504;-79
2022/04/10 05:14:21;;;;;;;13.15;7.50;;;;;;;11.44;52.07;98830.36;4137532;83;28484;-80
2022/04/10 05:20:23;;;;;;;12.88;7.70;;;;;;;11.69;51.10;98831.34;4160437;83;28507;-78
2022/04/10 05:26:26;;;;;;;11.15;7.05;;;;;;;11.90;50.60;98838.95;4305633;80;28531;-79
2022/04/10 05:32:29;;;;;;;14.68;7.92;;;;;;;12.22;49.66;98847.28;4311305;80;28530;-79
2022/04/10 05:38:31;;;;;;;13.48;7.90;;;;;;;12.26;49.72;98847.09;4301084;80;28525;-80
2022/04/10 05:44:34;;;;;;;15.10;8.30;;;;;;;12.50;48.91;98849.58;4299576;80;28494;-80
2022/04/10 05:50:36;;;;;;;12.85;7.83;;;;;;;12.72;48.39;98850.14;4246183;81;28515;-78
2022/04/10 05:56:39;;;;;;;14.18;8.08;;;;;;;12.91;47.68;98856.06;4210089;82;28566;-78
2022/04/10 06:02:41;;;;;;;16.10;9.35;;;;;;;13.28;46.76;98861.34;4197067;82;28567;-75
2022/04/10 06:08:44;;;;;;;15.38;9.35;;;;;;;12.54;48.32;98865.53;4156085;83;28496;-76
2022/04/10 06:14:45;;;;;;;17.05;10.43;;;;;;;13.19;46.93;98866.91;4237261;82;28505;-76
2022/04/10 06:20:47;;;;;;;16.25;10.00;;;;;;;13.16;47.08;98870.09;4181123;83;28529;-76
2022/04/10 06:26:49;;;;;;;15.18;9.03;;;;;;;13.42;46.04;98874.44;4163596;83;28585;-77
2022/04/10 06:32:51;;;;;;;15.95;9.10;;;;;;;13.49;46.21;98885.34;4153932;83;28518;-75
2022/04/10 06:38:53;;;;;;;15.20;9.18;;;;;;;13.82;44.96;98894.86;4218174;82;28499;-76
2022/04/10 06:44:57;;;;;;;15.40;9.40;;;;;;;14.21;44.05;98890.59;4164630;83;28501;-76
2022/04/10 06:51:18;;;;;;;15.38;9.48;;;;;;;15.18;42.38;98894.13;4206389;81;28556;-75
2022/04/10 06:57:19;;;;;;;16.57;9.30;;;;;;;15.47;40.86;98892.32;4260825;81;28515;-75
2022/04/10 07:03:21;;;;;;;15.50;9.43;;;;;;;15.79;40.36;98908.12;4242635;81;28470;-75
2022/04/10 07:09:23;;;;;;;18.27;10.38;;;;;;;15.78;40.63;98907.84;4259096;81;28525;-77
2022/04/10 07:15:24;;;;;;;13.60;9.45;;;;;;;14.37;42.43;98908.27;4240239;81;28531;-78
2022/04/10 07:27:46;;;;;;;16.75;10.75;;;;;;;14.63;41.96;98910.61;4243750;81;28535;-83
2022/04/10 07:33:55;;;;;;;16.15;10.28;;;;;;;14.24;42.62;98912.78;4236644;81;28564;-75
2022/04/10 07:40:06;;;;;;;16.80;9.40;;;;;;;14.58;42.13;98922.77;4216630;82;28501;-73
2022/04/10 07:52:30;;;;;;;9.25;7.05;;;;;;;14.16;42.04;98937.03;4235782;81;28548;-76
2022/04/10 07:58:39;;;;;;;13.38;7.78;;;;;;;14.24;41.49;98940.62;4238581;81;28536;-74
2022/04/10 08:04:43;;;;;;;12.60;7.87;;;;;;;14.55;40.65;98940.05;4253675;81;28949;-77
2022/04/10 08:10:51;;;;;;;12.73;7.42;;;;;;;13.82;41.67;98948.90;4243297;82;28549;-76
2022/04/10 08:16:52;;;;;;;12.85;8.23;;;;;;;14.43;40.81;98945.64;4284275;80;28468;-75
2022/04/10 08:22:58;;;;;;;16.17;10.18;;;;;;;13.90;41.58;98956.55;4286465;80;28563;-75
2022/04/10 08:28:57;;;;;;;14.07;8.40;;;;;;;14.20;41.01;98959.23;4308661;80;28519;-74
2022/04/10 08:34:59;;;;;;;14.73;7.75;;;;;;;14.61;40.10;98961.47;4288902;80;28542;-76
2022/04/10 08:41:02;;;;;;;12.80;6.67;;;;;;;14.35;40.06;98976.69;4266145;80;28503;-76
2022/04/10 08:47:04;;;;;;;13.90;7.30;;;;;;;14.32;39.89;98975.86;4280950;81;28536;-75
2022/04/10 08:53:06;;;;;;;13.03;7.12;;;;;;;14.70;39.42;98974.52;4326690;80;28550;-77
2022/04/10 08:59:08;;;;;;;13.58;6.42;;;;;;;14.58;39.69;98970.11;4311651;80;28545;-73
2022/04/10 09:05:17;;;;;;;12.10;6.65;;;;;;;14.71;39.45;98976.15;4337188;80;28499;-73
2022/04/10 09:11:19;;;;;;;11.70;6.00;;;;;;;15.51;38.53;98979.30;4337255;80;28574;-74
2022/04/10 09:17:29;;;;;;;10.45;5.10;;;;;;;15.94;38.02;98983.27;4331928;80;28516;-75
2022/04/10 09:23:28;;;;;;;9.50;5.08;;;;;;;16.13;37.05;98978.13;4297870;80;28528;-74
2022/04/10 09:29:30;;;;;;;11.03;4.55;;;;;;;15.29;37.61;98984.89;4293767;80;28527;-75
2022/04/10 09:35:42;;;;;;;9.43;4.45;;;;;;;16.21;35.87;98975.98;4296018;80;28493;-75
2022/04/10 09:41:45;;;;;;;11.55;4.28;;;;;;;16.30;35.42;98977.88;4251462;81;28521;-74
2022/04/10 09:47:46;;;;;;;8.28;4.47;;;;;;;16.72;35.05;98980.05;4174506;83;28505;-76
2022/04/10 09:54:03;;;;;;;8.15;4.37;;;;;;;16.80;35.77;98972.41;4301512;80;28569;-76
2022/04/10 10:00:07;;;;;;;11.12;4.17;;;;;;;16.76;35.64;98965.35;4274389;80;28526;-88
2022/04/10 10:06:12;;;;;;;7.33;3.60;;;;;;;16.95;35.89;98956.11;4280544;80;28625;-83
2022/04/10 10:12:16;;;;;;;10.93;4.08;;;;;;;16.78;34.80;98944.73;4281456;80;28467;-87
2022/04/10 10:27:09;;;;;;;9.08;4.03;;;;;;;17.52;35.01;98934.17;4294859;82;28538;-86
2022/04/10 10:34:25;;;;;;;5.58;2.40;;;;;;;17.52;35.01;157790.73;4315227;80;28526;-90
